createdAt,value
2017-09-03T00:01:06.005Z,17.48
2017-09-03T00:03:33.585Z,17.62
2017-09-03T00:06:01.148Z,18.65
2017-09-03T00:08:28.759Z,17.48
2017-09-03T00:10:56.338Z,16.08
2017-09-03T00:13:24.014Z,16.65
2017-09-03T00:15:51.710Z,15.70
2017-09-03T00:18:19.269Z,15.27
2017-09-03T00:20:46.901Z,16.10
2017-09-03T00:23:14.457Z,16.02
2017-09-03T00:25:42.025Z,13.65
2017-09-03T00:28:09.623Z,14.85
2017-09-03T00:30:37.183Z,15.18
2017-09-03T00:33:04.760Z,14.27
2017-09-03T00:35:32.338Z,14.98
2017-09-03T00:37:59.947Z,16.70
2017-09-03T00:40:27.495Z,16.00
2017-09-03T00:42:55.074Z,14.77
2017-09-03T00:45:22.697Z,14.68
2017-09-03T00:47:50.255Z,13.30
2017-09-03T00:50:17.811Z,13.80
2017-09-03T00:52:45.365Z,14.40
2017-09-03T00:55:12.962Z,13.82
2017-09-03T00:57:40.569Z,13.40
2017-09-03T01:00:08.207Z,13.25
2017-09-03T01:02:35.791Z,13.38
2017-09-03T01:05:03.351Z,12.15
2017-09-03T01:07:30.941Z,12.93
2017-09-03T01:09:58.531Z,12.75
2017-09-03T01:12:26.099Z,13.48
2017-09-03T01:14:53.708Z,12.48
2017-09-03T01:17:21.270Z,11.38
2017-09-03T01:19:48.852Z,12.68
2017-09-03T01:22:16.420Z,12.43
2017-09-03T01:24:44.001Z,13.02
2017-09-03T01:27:11.557Z,11.68
2017-09-03T01:29:39.178Z,12.82
2017-09-03T01:32:06.776Z,13.52
2017-09-03T01:34:34.342Z,14.98
2017-09-03T01:37:01.928Z,13.70
2017-09-03T01:39:29.504Z,13.18
2017-09-03T01:41:57.071Z,13.98
2017-09-03T01:44:24.657Z,13.65
2017-09-03T01:46:52.238Z,12.95
2017-09-03T01:49:19.810Z,12.30
2017-09-03T01:51:47.371Z,11.30
2017-09-03T01:54:14.964Z,12.20
2017-09-03T01:56:42.590Z,11.05
2017-09-03T01:59:10.258Z,10.90
2017-09-03T02:01:37.851Z,12.63
2017-09-03T02:04:05.410Z,13.50
2017-09-03T02:06:32.986Z,12.43
2017-09-03T02:09:00.555Z,11.63
2017-09-03T02:11:28.378Z,13.13
2017-09-03T02:13:55.964Z,14.20
2017-09-03T02:16:23.550Z,14.13
2017-09-03T02:18:51.118Z,13.73
2017-09-03T02:21:18.797Z,13.18
2017-09-03T02:23:46.352Z,12.85
2017-09-03T02:26:13.943Z,13.07
2017-09-03T02:28:41.517Z,12.55
2017-09-03T02:31:09.118Z,14.55
2017-09-03T02:33:36.706Z,15.07
2017-09-03T02:36:04.271Z,15.20
2017-09-03T02:38:31.854Z,15.73
2017-09-03T02:40:59.421Z,15.05
2017-09-03T02:43:27.005Z,15.15
2017-09-03T02:45:54.593Z,15.52
2017-09-03T02:48:22.185Z,16.40
2017-09-03T02:50:49.759Z,16.45
2017-09-03T02:53:17.363Z,17.23
2017-09-03T02:55:44.973Z,14.93
2017-09-03T02:58:12.541Z,14.02
2017-09-03T03:00:40.146Z,14.20
2017-09-03T03:03:07.714Z,13.65
2017-09-03T03:05:35.290Z,14.68
2017-09-03T03:08:02.901Z,13.65
2017-09-03T03:10:30.542Z,16.52
2017-09-03T03:12:58.128Z,12.90
2017-09-03T03:15:25.709Z,14.40
2017-09-03T03:17:53.273Z,13.65
2017-09-03T03:20:20.845Z,13.93
2017-09-03T03:22:48.434Z,12.98
2017-09-03T03:25:16.015Z,13.20
2017-09-03T03:27:43.571Z,13.52
2017-09-03T03:30:11.147Z,15.25
2017-09-03T03:32:38.730Z,15.88
2017-09-03T03:35:06.321Z,18.55
2017-09-03T03:37:33.922Z,17.85
2017-09-03T03:40:01.565Z,18.00
2017-09-03T03:42:29.142Z,20.73
2017-09-03T03:44:56.737Z,22.27
2017-09-03T03:47:24.290Z,20.30
2017-09-03T03:49:51.862Z,18.50
2017-09-03T03:52:19.451Z,15.60
2017-09-03T03:54:47.146Z,18.73
2017-09-03T03:57:14.727Z,17.67
2017-09-03T03:59:42.433Z,20.23
2017-09-03T04:02:10.034Z,22.20
2017-09-03T04:04:37.592Z,22.52
2017-09-03T04:07:05.162Z,21.33
2017-09-03T04:09:32.842Z,22.98
2017-09-03T04:12:00.519Z,22.83
2017-09-03T04:14:28.102Z,19.20
2017-09-03T04:16:55.657Z,21.52
2017-09-03T04:19:23.253Z,19.05
2017-09-03T04:21:50.831Z,19.40
2017-09-03T04:24:18.433Z,18.98
2017-09-03T04:26:46.017Z,19.12
2017-09-03T04:29:13.596Z,18.80
2017-09-03T04:31:41.174Z,15.38
2017-09-03T04:34:08.762Z,17.67
2017-09-03T04:36:36.349Z,19.20
2017-09-03T04:39:03.928Z,18.92
2017-09-03T04:41:31.494Z,18.08
2017-09-03T04:43:59.090Z,18.42
2017-09-03T04:46:26.658Z,18.17
2017-09-03T04:48:54.243Z,16.90
2017-09-03T04:51:21.815Z,17.87
2017-09-03T04:53:49.399Z,18.33
2017-09-03T04:56:16.976Z,16.42
2017-09-03T04:58:44.572Z,15.85
2017-09-03T05:01:12.163Z,17.10
2017-09-03T05:03:39.754Z,16.15
2017-09-03T05:06:07.330Z,16.40
2017-09-03T05:08:34.916Z,17.65
2017-09-03T05:11:02.506Z,18.08
2017-09-03T05:13:30.062Z,15.90
2017-09-03T05:15:57.822Z,17.58
2017-09-03T05:18:25.416Z,19.50
2017-09-03T05:20:53.008Z,21.70
2017-09-03T05:23:20.719Z,23.20
2017-09-03T05:25:48.346Z,22.45
2017-09-03T05:28:15.903Z,18.83
2017-09-03T05:30:43.488Z,19.70
2017-09-03T05:33:11.087Z,21.20
2017-09-03T05:35:38.648Z,18.50
2017-09-03T05:38:06.236Z,20.83
2017-09-03T05:40:33.830Z,18.42
2017-09-03T05:43:01.390Z,18.85
2017-09-03T05:45:28.987Z,20.67
2017-09-03T05:47:56.582Z,19.77
2017-09-03T05:50:24.183Z,18.75
2017-09-03T05:52:51.745Z,20.67
2017-09-03T05:55:19.327Z,20.07
2017-09-03T05:57:46.913Z,17.97
2017-09-03T06:00:14.486Z,17.10
2017-09-03T06:02:42.073Z,16.70
2017-09-03T06:05:09.650Z,16.80
2017-09-03T06:07:37.293Z,15.10
2017-09-03T06:10:04.902Z,13.87
2017-09-03T06:12:32.551Z,13.10
2017-09-03T06:15:00.166Z,13.17
2017-09-03T06:17:27.719Z,11.87
2017-09-03T06:19:55.304Z,13.40
2017-09-03T06:22:22.930Z,12.83
2017-09-03T06:24:50.547Z,12.50
2017-09-03T06:27:18.173Z,12.07
2017-09-03T06:29:45.774Z,12.90
2017-09-03T06:32:13.402Z,11.13
2017-09-03T06:34:40.974Z,11.97
2017-09-03T06:37:08.542Z,12.23
2017-09-03T06:39:36.127Z,12.07
2017-09-03T06:42:03.674Z,12.37
2017-09-03T06:44:31.265Z,11.90
2017-09-03T06:46:58.855Z,13.20
2017-09-03T06:49:26.415Z,12.27
2017-09-03T06:51:54.028Z,11.50
2017-09-03T06:54:21.623Z,12.07
2017-09-03T06:56:49.178Z,11.70
2017-09-03T06:59:16.800Z,11.07
2017-09-03T07:01:44.369Z,13.73
2017-09-03T07:04:11.950Z,12.40
2017-09-03T07:06:39.499Z,11.90
2017-09-03T07:09:07.063Z,12.60
2017-09-03T07:11:34.667Z,13.90
2017-09-03T07:14:02.272Z,13.20
2017-09-03T07:16:30.030Z,12.70
2017-09-03T07:18:58.046Z,13.43
2017-09-03T07:21:25.641Z,12.50
2017-09-03T07:23:53.222Z,14.33
2017-09-03T07:26:20.839Z,12.40
2017-09-03T07:28:48.394Z,12.93
2017-09-03T07:31:15.994Z,12.77
2017-09-03T07:33:43.626Z,10.90
2017-09-03T07:36:11.215Z,11.93
2017-09-03T07:38:39.748Z,12.67
2017-09-03T07:41:07.314Z,10.80
2017-09-03T07:43:34.910Z,12.10
2017-09-03T07:46:02.480Z,12.47
2017-09-03T07:48:30.060Z,12.43
2017-09-03T07:50:57.644Z,12.60
2017-09-03T07:53:25.202Z,11.33
2017-09-03T07:55:52.878Z,11.50
2017-09-03T07:58:20.437Z,12.97
2017-09-03T08:00:48.082Z,11.60
2017-09-03T08:03:15.659Z,11.67
2017-09-03T08:05:43.263Z,12.40
2017-09-03T08:08:10.858Z,11.33
2017-09-03T08:10:38.595Z,11.83
2017-09-03T08:13:06.167Z,11.23
2017-09-03T08:15:33.738Z,12.80
2017-09-03T08:18:01.322Z,12.73
2017-09-03T08:20:28.884Z,11.93
2017-09-03T08:22:56.473Z,12.80
2017-09-03T08:25:24.081Z,12.47
2017-09-03T08:27:51.647Z,13.10
2017-09-03T08:30:19.284Z,13.10
2017-09-03T08:32:46.821Z,13.43
2017-09-03T08:35:14.436Z,12.90
2017-09-03T08:37:42.014Z,12.97
2017-09-03T08:40:09.620Z,11.83
2017-09-03T08:42:37.192Z,12.27
2017-09-03T08:45:04.807Z,12.83
2017-09-03T08:47:32.411Z,13.43
2017-09-03T08:49:59.985Z,12.80
2017-09-03T08:52:27.569Z,13.73
2017-09-03T08:54:55.152Z,12.73
2017-09-03T08:57:22.722Z,13.37
2017-09-03T08:59:50.483Z,13.30
2017-09-03T09:02:18.063Z,13.83
2017-09-03T09:04:45.632Z,13.77
2017-09-03T09:07:13.240Z,13.57
2017-09-03T09:09:40.832Z,13.77
2017-09-03T09:12:08.410Z,15.03
2017-09-03T09:14:35.979Z,14.67
2017-09-03T09:17:03.711Z,15.13
2017-09-03T09:19:31.412Z,16.57
2017-09-03T09:21:59.013Z,14.13
2017-09-03T09:24:27.134Z,16.60
2017-09-03T09:26:54.712Z,16.27
2017-09-03T09:29:22.320Z,13.90
2017-09-03T09:31:49.887Z,15.17
2017-09-03T09:34:17.494Z,16.00
2017-09-03T09:36:45.079Z,14.93
2017-09-03T09:39:12.673Z,14.40
2017-09-03T09:41:40.246Z,14.90
2017-09-03T09:44:07.897Z,15.10
2017-09-03T09:46:35.522Z,14.73
2017-09-03T09:49:03.087Z,14.27
2017-09-03T09:51:30.698Z,12.30
2017-09-03T09:53:58.276Z,12.63
2017-09-03T09:56:26.881Z,12.33
2017-09-03T09:58:54.477Z,12.20
2017-09-03T10:01:22.087Z,11.97
2017-09-03T10:03:49.680Z,10.83
2017-09-03T10:06:17.266Z,11.07
2017-09-03T10:08:44.846Z,9.80
2017-09-03T10:11:12.508Z,11.40
2017-09-03T10:13:40.084Z,9.43
2017-09-03T10:16:07.684Z,8.73
2017-09-03T10:18:35.260Z,7.20
2017-09-03T10:21:02.842Z,9.50
2017-09-03T10:23:30.434Z,9.37
2017-09-03T10:25:58.101Z,9.37
2017-09-03T10:28:25.700Z,9.17
2017-09-03T10:30:53.254Z,10.07
2017-09-03T10:33:20.830Z,8.97
2017-09-03T10:35:48.417Z,9.40
2017-09-03T10:38:15.982Z,9.13
2017-09-03T10:40:43.577Z,9.93
2017-09-03T10:43:11.149Z,9.97
2017-09-03T10:45:38.748Z,9.70
2017-09-03T10:48:06.326Z,10.73
2017-09-03T10:50:33.923Z,11.43
2017-09-03T10:53:01.582Z,9.17
2017-09-03T10:55:29.139Z,10.97
2017-09-03T10:57:56.766Z,11.03
2017-09-03T11:00:24.327Z,10.30
2017-09-03T11:02:51.906Z,8.37
2017-09-03T11:05:19.483Z,8.30
2017-09-03T11:07:47.082Z,8.90
2017-09-03T11:10:14.743Z,6.10
2017-09-03T11:12:42.358Z,7.10
2017-09-03T11:15:09.946Z,7.67
2017-09-03T11:17:37.543Z,6.90
2017-09-03T11:20:05.127Z,5.67
2017-09-03T11:22:32.706Z,5.90
2017-09-03T11:25:01.515Z,6.40
2017-09-03T11:27:29.067Z,5.03
2017-09-03T11:29:58.947Z,6.07
2017-09-03T11:32:26.547Z,6.80
2017-09-03T11:34:54.117Z,7.63
2017-09-03T11:37:21.691Z,7.23
2017-09-03T11:39:49.300Z,8.77
2017-09-03T11:42:16.886Z,8.43
2017-09-03T11:44:44.483Z,6.60
2017-09-03T11:47:12.044Z,7.70
2017-09-03T11:49:39.715Z,7.30
2017-09-03T11:52:07.284Z,8.57
2017-09-03T11:54:34.861Z,8.33
2017-09-03T11:57:02.426Z,7.23
2017-09-03T11:59:30.019Z,7.80
2017-09-03T12:01:57.607Z,7.13
2017-09-03T12:04:25.286Z,6.63
2017-09-03T12:06:52.902Z,5.67
2017-09-03T12:09:20.487Z,7.10
2017-09-03T12:11:48.077Z,6.50
2017-09-03T12:14:15.707Z,6.20
2017-09-03T12:16:43.304Z,7.00
2017-09-03T12:19:11.210Z,6.53
2017-09-03T12:21:39.809Z,6.60
2017-09-03T12:24:07.454Z,5.67
2017-09-03T12:26:35.060Z,5.47
2017-09-03T12:29:02.819Z,5.60
2017-09-03T12:31:30.415Z,4.80
2017-09-03T12:33:58.046Z,5.27
2017-09-03T12:36:25.639Z,4.90
2017-09-03T12:38:53.256Z,5.10
2017-09-03T12:41:20.899Z,5.10
2017-09-03T12:43:48.505Z,4.93
2017-09-03T12:46:16.112Z,4.80
2017-09-03T12:48:44.345Z,5.00
2017-09-03T12:51:12.226Z,4.97
2017-09-03T12:53:39.907Z,4.87
2017-09-03T12:56:08.582Z,3.77
2017-09-03T12:58:36.239Z,4.80
2017-09-03T13:01:03.812Z,3.93
2017-09-03T13:03:31.375Z,4.77
2017-09-03T13:05:58.944Z,4.70
2017-09-03T13:08:26.585Z,5.37
2017-09-03T13:10:54.150Z,4.53
2017-09-03T13:13:21.832Z,4.30
2017-09-03T13:15:49.383Z,3.97
2017-09-03T13:18:16.955Z,3.73
2017-09-03T13:20:45.932Z,3.27
2017-09-03T13:23:13.553Z,3.50
2017-09-03T13:25:52.278Z,4.00
2017-09-03T13:28:22.855Z,3.50
2017-09-03T13:30:50.847Z,4.50
2017-09-03T13:33:18.400Z,4.20
2017-09-03T13:35:46.018Z,3.93
2017-09-03T13:38:13.663Z,3.70
2017-09-03T13:43:31.386Z,3.80
2017-09-03T13:45:59.747Z,3.53
2017-09-03T13:48:27.382Z,3.70
2017-09-03T13:50:55.034Z,4.07
2017-09-03T13:53:22.779Z,3.60
2017-09-03T13:55:50.343Z,3.10
2017-09-03T13:58:17.917Z,4.40
2017-09-03T14:00:47.454Z,3.90
2017-09-03T14:03:15.087Z,4.00
2017-09-03T14:05:42.728Z,3.83
2017-09-03T14:08:10.302Z,6.90
2017-09-03T14:10:37.894Z,6.50
2017-09-03T14:13:05.476Z,5.23
2017-09-03T14:15:33.071Z,5.60
2017-09-03T14:18:00.746Z,3.60
2017-09-03T14:20:28.416Z,3.50
2017-09-03T14:22:56.002Z,3.47
2017-09-03T14:25:23.673Z,3.37
2017-09-03T14:27:51.262Z,3.50
2017-09-03T14:30:18.855Z,3.30
2017-09-03T14:32:46.463Z,3.80
2017-09-03T14:35:14.102Z,3.83
2017-09-03T14:37:41.706Z,3.87
2017-09-03T14:40:09.332Z,3.30
2017-09-03T14:42:36.898Z,4.77
2017-09-03T14:45:04.458Z,3.70
2017-09-03T14:47:32.035Z,3.77
2017-09-03T14:49:59.607Z,30.03
2017-09-03T14:52:27.181Z,5.20
2017-09-03T14:54:54.755Z,4.47
2017-09-03T14:57:22.346Z,13.70
2017-09-03T14:59:49.915Z,10.33
2017-09-03T15:02:17.524Z,5.40
2017-09-03T15:04:45.294Z,5.40
2017-09-03T15:07:22.786Z,12.37
2017-09-03T15:09:50.371Z,6.60
2017-09-03T15:12:17.946Z,12.43
2017-09-03T15:14:45.523Z,3.93
2017-09-03T15:17:13.305Z,3.87
2017-09-03T15:19:40.916Z,7.07
2017-09-03T15:22:08.531Z,3.80
2017-09-03T15:24:36.104Z,3.37
2017-09-03T15:27:03.734Z,2.80
2017-09-03T15:29:31.443Z,3.43
2017-09-03T15:31:59.194Z,3.03
2017-09-03T15:34:26.769Z,3.43
2017-09-03T15:36:54.414Z,3.60
2017-09-03T15:39:22.027Z,3.47
2017-09-03T15:41:49.607Z,3.33
2017-09-03T15:44:17.199Z,3.10
2017-09-03T15:46:44.769Z,3.07
2017-09-03T15:49:12.361Z,3.10
2017-09-03T15:51:39.936Z,3.17
2017-09-03T15:54:07.538Z,3.43
2017-09-03T15:56:35.228Z,3.13
2017-09-03T15:59:02.804Z,3.40
2017-09-03T16:01:30.412Z,3.20
2017-09-03T16:03:58.666Z,3.83
2017-09-03T16:06:26.277Z,3.30
2017-09-03T16:08:53.890Z,3.90
2017-09-03T16:11:21.467Z,3.17
2017-09-03T16:13:49.035Z,3.20
2017-09-03T16:16:16.774Z,3.40
2017-09-03T16:18:44.331Z,3.00
2017-09-03T16:21:12.014Z,4.10
2017-09-03T16:23:39.624Z,3.80
2017-09-03T16:26:07.213Z,3.60
2017-09-03T16:28:34.815Z,3.13
2017-09-03T16:31:02.402Z,3.37
2017-09-03T16:33:29.953Z,3.60
2017-09-03T16:35:57.525Z,3.43
2017-09-03T16:38:25.112Z,4.73
2017-09-03T16:40:52.667Z,4.40
2017-09-03T16:43:20.242Z,3.83
2017-09-03T16:45:47.826Z,4.17
2017-09-03T16:48:15.422Z,4.57
2017-09-03T16:50:42.999Z,4.20
2017-09-03T16:53:10.558Z,3.90
2017-09-03T16:55:38.236Z,3.20
2017-09-03T16:58:05.787Z,3.60
2017-09-03T17:00:33.365Z,3.97
2017-09-03T17:03:00.930Z,2.87
2017-09-03T17:05:28.535Z,3.13
2017-09-03T17:07:56.101Z,2.87
2017-09-03T17:10:23.694Z,3.40
2017-09-03T17:12:51.290Z,2.90
2017-09-03T17:15:18.895Z,2.30
2017-09-03T17:17:46.473Z,2.40
2017-09-03T17:20:14.063Z,3.10
2017-09-03T17:22:41.638Z,2.93
2017-09-03T17:25:09.251Z,3.30
2017-09-03T17:27:36.845Z,2.57
2017-09-03T17:30:04.417Z,2.90
2017-09-03T17:32:33.722Z,2.57
2017-09-03T17:35:06.899Z,2.93
2017-09-03T17:37:34.964Z,2.33
2017-09-03T17:40:06.215Z,2.80
2017-09-03T17:42:33.837Z,3.50
2017-09-03T17:45:02.215Z,3.13
2017-09-03T17:47:29.798Z,3.13
2017-09-03T17:49:57.373Z,3.23
2017-09-03T17:52:24.978Z,3.07
2017-09-03T17:54:53.882Z,3.40
2017-09-03T17:57:23.564Z,2.90
2017-09-03T17:59:51.352Z,3.43
2017-09-03T18:02:18.929Z,3.23
2017-09-03T18:04:46.522Z,3.50
2017-09-03T18:07:14.102Z,3.70
2017-09-03T18:09:41.647Z,3.93
2017-09-03T18:12:09.295Z,5.97
2017-09-03T18:14:36.840Z,5.90
2017-09-03T18:17:04.391Z,4.90
2017-09-03T18:19:31.994Z,5.60
2017-09-03T18:21:59.577Z,4.60
2017-09-03T18:24:27.207Z,4.50
2017-09-03T18:26:54.820Z,4.30
2017-09-03T18:29:22.491Z,5.07
2017-09-03T18:31:50.133Z,5.13
2017-09-03T18:34:17.736Z,5.77
2017-09-03T18:37:00.171Z,5.10
2017-09-03T18:39:34.180Z,4.90
2017-09-03T18:42:02.310Z,4.87
2017-09-03T18:44:29.991Z,4.73
2017-09-03T18:46:57.846Z,4.77
2017-09-03T18:49:35.383Z,4.10
2017-09-03T18:55:02.863Z,4.70
2017-09-03T18:57:31.024Z,5.30
2017-09-03T18:59:58.664Z,4.37
2017-09-03T19:02:28.741Z,4.30
2017-09-03T19:05:01.921Z,4.47
2017-09-03T19:07:30.337Z,4.67
2017-09-03T19:09:57.995Z,4.10
2017-09-03T19:12:25.640Z,5.40
2017-09-03T19:14:53.271Z,4.20
2017-09-03T19:17:20.815Z,6.07
2017-09-03T19:19:48.420Z,5.43
2017-09-03T19:22:16.016Z,3.97
2017-09-03T19:24:43.583Z,4.47
2017-09-03T19:27:11.166Z,5.03
2017-09-03T19:29:38.781Z,4.90
2017-09-03T19:32:06.342Z,5.70
2017-09-03T19:34:33.953Z,5.10
2017-09-03T19:37:02.109Z,4.93
2017-09-03T19:39:29.752Z,4.73
2017-09-03T19:41:57.460Z,4.20
2017-09-03T19:44:25.162Z,5.10
2017-09-03T19:46:52.749Z,5.30
2017-09-03T19:49:20.511Z,5.30
2017-09-03T19:51:48.258Z,5.67
2017-09-03T19:54:15.915Z,6.10
2017-09-03T19:56:43.529Z,6.67
2017-09-03T19:59:11.129Z,6.23
2017-09-03T20:01:38.706Z,6.70
2017-09-03T20:04:06.603Z,6.30
2017-09-03T20:06:34.162Z,6.20
2017-09-03T20:09:01.735Z,5.87
2017-09-03T20:11:29.335Z,5.70
2017-09-03T20:13:57.082Z,4.90
2017-09-03T20:16:24.658Z,6.53
2017-09-03T20:18:52.262Z,5.07
2017-09-03T20:21:19.833Z,5.93
2017-09-03T20:23:47.452Z,6.80
2017-09-03T20:26:15.187Z,5.53
2017-09-03T20:28:42.809Z,5.87
2017-09-03T20:31:10.450Z,5.77
2017-09-03T20:33:38.154Z,5.73
2017-09-03T20:36:05.770Z,6.00
2017-09-03T20:38:33.402Z,5.80
2017-09-03T20:41:00.994Z,6.20
2017-09-03T20:43:28.628Z,5.80
2017-09-03T20:45:56.207Z,6.80
2017-09-03T20:48:23.786Z,6.63
2017-09-03T20:50:51.382Z,6.17
2017-09-03T20:53:18.986Z,6.03
2017-09-03T20:55:46.586Z,6.73
2017-09-03T20:58:14.187Z,6.40
2017-09-03T21:00:41.808Z,6.70
2017-09-03T21:03:09.394Z,6.70
2017-09-03T21:05:36.983Z,6.90
2017-09-03T21:08:04.739Z,6.43
2017-09-03T21:10:32.434Z,6.80
2017-09-03T21:13:00.074Z,7.00
2017-09-03T21:15:27.666Z,6.57
2017-09-03T21:17:55.274Z,7.10
2017-09-03T21:20:22.885Z,7.10
2017-09-03T21:22:50.461Z,8.33
2017-09-03T21:25:18.045Z,6.27
2017-09-03T21:27:45.610Z,8.40
2017-09-03T21:30:13.216Z,7.47
2017-09-03T21:32:40.766Z,7.87
2017-09-03T21:35:08.330Z,8.43
2017-09-03T21:37:35.921Z,6.90
2017-09-03T21:40:03.470Z,7.60
2017-09-03T21:42:31.047Z,7.47
2017-09-03T21:44:58.657Z,6.90
2017-09-03T21:47:26.222Z,7.57
2017-09-03T21:49:53.805Z,7.50
2017-09-03T21:52:21.382Z,8.23
2017-09-03T21:54:48.957Z,7.37
2017-09-03T21:57:16.573Z,7.50
2017-09-03T21:59:44.170Z,6.93
2017-09-03T22:02:11.835Z,8.10
2017-09-03T22:04:39.416Z,7.97
2017-09-03T22:07:06.998Z,8.07
2017-09-03T22:09:34.571Z,8.40
2017-09-03T22:12:02.157Z,8.03
2017-09-03T22:14:29.750Z,7.70
2017-09-03T22:16:57.355Z,7.53
2017-09-03T22:19:24.915Z,7.80
2017-09-03T22:21:52.532Z,7.80
2017-09-03T22:24:20.097Z,6.77
2017-09-03T22:26:47.688Z,8.40
2017-09-03T22:29:15.275Z,7.37
2017-09-03T22:31:42.851Z,8.23
2017-09-03T22:34:10.421Z,6.90
2017-09-03T22:36:38.034Z,6.57
2017-09-03T22:39:05.854Z,7.15
2017-09-03T22:41:33.535Z,6.60
2017-09-03T22:44:01.161Z,6.60
2017-09-03T22:46:28.733Z,7.53
2017-09-03T22:48:56.483Z,7.37
2017-09-03T22:51:24.048Z,6.60
2017-09-03T22:53:51.626Z,7.57
2017-09-03T22:56:19.303Z,8.87
2017-09-03T22:58:46.867Z,6.70
2017-09-03T23:01:14.439Z,6.77
2017-09-03T23:03:42.001Z,6.77
2017-09-03T23:06:09.600Z,6.90
2017-09-03T23:08:37.182Z,8.30
2017-09-03T23:11:04.771Z,6.30
2017-09-03T23:13:32.357Z,6.93
2017-09-03T23:15:59.955Z,6.90
2017-09-03T23:18:27.516Z,7.50
2017-09-03T23:20:55.178Z,6.30
2017-09-03T23:23:22.768Z,6.37
2017-09-03T23:25:50.326Z,7.20
2017-09-03T23:28:17.911Z,6.30
2017-09-03T23:30:45.473Z,7.03
2017-09-03T23:33:13.058Z,6.57
2017-09-03T23:35:40.618Z,6.37
2017-09-03T23:38:08.182Z,7.10
2017-09-03T23:40:35.778Z,6.70
2017-09-03T23:43:03.346Z,7.33
2017-09-03T23:45:30.941Z,7.60
2017-09-03T23:47:58.538Z,6.93
2017-09-03T23:50:26.095Z,6.37
2017-09-03T23:52:53.722Z,6.53
2017-09-03T23:55:21.303Z,6.60
2017-09-03T23:57:48.902Z,7.03
